createdAt,value
2019-01-23T00:03:24.873Z,0.21
2019-01-23T00:05:49.439Z,0.18
2019-01-23T00:08:13.874Z,0.15
2019-01-23T00:10:38.276Z,0.13
2019-01-23T00:13:03.548Z,0.11
2019-01-23T00:15:34.379Z,0.12
2019-01-23T00:17:58.803Z,0.09
2019-01-23T00:20:23.221Z,0.14
2019-01-23T00:22:47.634Z,0.22
2019-01-23T00:28:08.564Z,0.12
2019-01-23T00:30:32.977Z,-0.04
2019-01-23T00:32:57.388Z,-0.10
2019-01-23T00:35:21.816Z,-0.08
2019-01-23T00:37:46.215Z,-0.37
2019-01-23T00:40:29.985Z,-0.10
2019-01-23T00:43:06.370Z,-0.11
2019-01-23T00:45:30.800Z,-0.08
2019-01-23T00:50:31.780Z,-0.18
2019-01-23T00:52:56.269Z,-0.20
2019-01-23T00:58:15.045Z,-0.38
2019-01-23T01:00:39.459Z,-0.24
2019-01-23T01:03:04.057Z,-0.24
2019-01-23T01:05:28.483Z,-0.19
2019-01-23T01:13:25.573Z,-0.45
2019-01-23T01:15:49.975Z,-0.44
2019-01-23T01:18:14.400Z,-0.36
2019-01-23T01:20:38.807Z,-0.34
2019-01-23T01:23:03.360Z,-0.44
2019-01-23T01:25:27.865Z,-0.39
2019-01-23T01:27:52.314Z,-0.43
2019-01-23T01:30:37.504Z,-0.40
2019-01-23T01:35:41.311Z,-0.47
2019-01-23T01:38:05.805Z,-0.48
2019-01-23T01:40:30.225Z,-0.47
2019-01-23T01:42:54.640Z,-0.59
2019-01-23T01:45:19.075Z,-0.58
2019-01-23T01:47:43.625Z,-0.50
2019-01-23T01:50:27.384Z,-0.71
2019-01-23T01:52:51.795Z,-0.52
2019-01-23T01:55:16.363Z,-0.63
2019-01-23T01:57:40.913Z,-0.64
2019-01-23T02:00:24.758Z,-0.59
2019-01-23T02:02:49.250Z,-0.61
2019-01-23T02:05:14.048Z,-0.76
2019-01-23T02:07:38.592Z,-0.76
2019-01-23T02:10:14.173Z,-0.72
2019-01-23T02:12:38.569Z,-0.78
2019-01-23T02:15:02.972Z,-0.81
2019-01-23T02:23:21.419Z,-0.88
2019-01-23T02:25:45.828Z,-0.93
2019-01-23T02:28:10.256Z,-0.86
2019-01-23T02:30:45.656Z,-0.87
2019-01-23T02:33:10.105Z,-0.93
2019-01-23T02:35:34.534Z,-0.92
2019-01-23T02:37:58.949Z,-0.87
2019-01-23T02:43:20.528Z,-1.00
2019-01-23T02:45:44.927Z,-0.82
2019-01-23T02:48:09.350Z,-1.00
2019-01-23T02:50:33.784Z,-1.17
2019-01-23T02:52:58.223Z,-1.10
2019-01-23T02:55:22.636Z,-0.97
2019-01-23T02:57:47.046Z,-0.99
2019-01-23T03:00:30.814Z,-1.13
2019-01-23T03:03:09.335Z,-1.12
2019-01-23T03:05:26.638Z,-1.19
2019-01-23T03:07:51.034Z,-1.12
2019-01-23T03:13:12.522Z,-1.36
2019-01-23T03:15:36.952Z,-1.18
2019-01-23T03:18:01.344Z,-1.29
2019-01-23T03:20:25.762Z,-1.28
2019-01-23T03:22:50.227Z,-1.37
2019-01-23T03:28:12.017Z,-1.39
2019-01-23T03:30:36.503Z,-1.26
2019-01-23T03:33:00.933Z,-1.43
2019-01-23T03:35:25.323Z,-1.29
2019-01-23T03:37:49.983Z,-1.43
2019-01-23T03:40:35.168Z,-1.33
2019-01-23T03:42:59.693Z,-1.43
2019-01-23T03:45:29.352Z,-1.42
2019-01-23T03:47:53.775Z,-1.37
2019-01-23T03:53:15.021Z,-1.47
2019-01-23T03:55:39.410Z,-1.49
2019-01-23T03:58:03.888Z,-1.45
2019-01-23T04:00:28.305Z,-1.57
2019-01-23T04:03:13.514Z,-1.54
2019-01-23T04:05:37.916Z,-1.45
2019-01-23T04:08:02.331Z,-1.47
2019-01-23T04:10:26.740Z,-1.48
2019-01-23T04:12:51.146Z,-1.47
2019-01-23T04:18:12.585Z,-1.56
2019-01-23T04:20:37.017Z,-1.45
2019-01-23T04:23:01.413Z,-1.68
2019-01-23T04:25:25.854Z,-1.62
2019-01-23T04:27:56.286Z,-1.66
2019-01-23T04:33:18.017Z,-1.74
2019-01-23T04:35:42.449Z,-1.66
2019-01-23T04:38:06.850Z,-1.76
2019-01-23T04:40:44.612Z,-1.71
2019-01-23T04:48:20.868Z,-1.90
2019-01-23T04:55:56.324Z,-1.92
2019-01-23T04:58:20.725Z,-1.93
2019-01-23T05:00:45.142Z,-1.87
2019-01-23T05:03:09.571Z,-1.89
2019-01-23T05:05:33.983Z,-2.30
2019-01-23T05:07:58.413Z,-1.94
2019-01-23T05:10:23.004Z,-1.87
2019-01-23T05:12:47.376Z,-1.97
2019-01-23T05:15:11.941Z,-1.98
2019-01-23T05:17:36.358Z,-2.01
2019-01-23T05:20:00.756Z,-2.00
2019-01-23T05:22:25.203Z,-2.04
2019-01-23T05:24:49.729Z,-2.03
2019-01-23T05:27:14.118Z,-2.12
2019-01-23T05:29:38.536Z,-2.11
2019-01-23T05:32:02.949Z,-2.07
2019-01-23T05:34:27.366Z,-2.08
2019-01-23T05:36:51.772Z,-2.10
2019-01-23T05:39:16.200Z,-2.16
2019-01-23T05:41:40.639Z,-2.18
2019-01-23T05:44:05.107Z,-2.18
2019-01-23T05:46:29.513Z,-2.27
2019-01-23T05:48:53.929Z,-2.21
2019-01-23T05:51:18.363Z,-2.23
2019-01-23T05:53:48.353Z,-2.20
2019-01-23T05:56:12.785Z,-2.16
2019-01-23T05:58:37.199Z,-2.18
2019-01-23T06:01:01.611Z,-2.22
2019-01-23T06:03:26.097Z,-2.19
2019-01-23T06:06:03.107Z,-2.24
2019-01-23T06:08:27.508Z,-2.23
2019-01-23T06:10:51.919Z,-2.28
2019-01-23T06:13:16.312Z,-2.36
2019-01-23T06:15:40.708Z,-2.30
2019-01-23T06:18:05.144Z,-2.27
2019-01-23T06:20:29.571Z,-2.28
2019-01-23T06:22:54.000Z,-2.18
2019-01-23T06:25:18.542Z,-2.30
2019-01-23T06:27:42.979Z,-2.34
2019-01-23T06:30:26.996Z,-2.30
2019-01-23T06:32:51.492Z,-2.40
2019-01-23T06:35:15.966Z,-2.27
2019-01-23T06:37:40.385Z,-2.28
2019-01-23T06:43:02.276Z,-2.24
2019-01-23T06:45:26.688Z,-2.31
2019-01-23T06:47:51.178Z,-2.35
2019-01-23T06:53:14.142Z,-2.32
2019-01-23T06:55:44.270Z,-2.24
2019-01-23T06:58:08.687Z,-2.42
2019-01-23T07:00:33.111Z,-2.24
2019-01-23T07:02:57.500Z,-2.22
2019-01-23T07:05:22.009Z,-2.39
2019-01-23T07:07:46.464Z,-2.35
2019-01-23T07:13:07.442Z,-2.22
2019-01-23T07:15:31.890Z,-2.21
2019-01-23T07:17:56.284Z,-2.29
2019-01-23T07:20:40.040Z,-2.40
2019-01-23T07:23:04.453Z,-2.37
2019-01-23T07:25:48.219Z,-2.26
2019-01-23T07:28:12.627Z,-2.31
2019-01-23T07:33:34.001Z,-2.30
2019-01-23T07:35:58.436Z,-2.19
2019-01-23T07:38:22.841Z,-2.24
2019-01-23T07:40:47.239Z,-2.22
2019-01-23T07:43:11.665Z,-2.18
2019-01-23T07:45:36.058Z,-2.19
2019-01-23T07:48:00.571Z,-2.13
2019-01-23T07:50:37.339Z,-2.13
2019-01-23T07:53:01.762Z,-2.18
2019-01-23T07:55:26.224Z,-2.02
2019-01-23T07:57:50.709Z,-2.07
2019-01-23T08:03:12.158Z,-2.09
2019-01-23T08:05:36.586Z,-2.14
2019-01-23T08:08:01.019Z,-2.14
2019-01-23T08:10:25.484Z,-2.10
2019-01-23T08:12:50.065Z,-2.03
2019-01-23T08:15:34.295Z,-2.26
2019-01-23T08:17:58.686Z,-2.27
2019-01-23T08:23:19.882Z,-1.88
2019-01-23T08:26:03.739Z,-1.74
2019-01-23T08:28:28.188Z,-1.76
2019-01-23T08:30:52.619Z,-1.86
2019-01-23T08:33:17.025Z,-2.02
2019-01-23T08:38:37.137Z,-1.87
2019-01-23T08:41:01.577Z,-1.78
2019-01-23T08:43:38.025Z,-1.67
2019-01-23T08:46:02.471Z,-1.52
2019-01-23T08:48:40.924Z,-1.43
2019-01-23T08:53:50.692Z,-2.01
2019-01-23T08:56:15.133Z,-1.54
2019-01-23T08:58:52.147Z,-1.40
2019-01-23T09:01:16.603Z,-1.49
2019-01-23T09:03:53.013Z,-1.37
2019-01-23T09:06:17.476Z,-1.40
2019-01-23T09:08:54.589Z,-1.73
2019-01-23T09:11:31.187Z,-1.62
2019-01-23T09:13:55.580Z,-1.53
2019-01-23T09:16:26.978Z,-1.31
2019-01-23T09:19:03.879Z,-1.35
2019-01-23T09:21:28.296Z,-1.75
2019-01-23T09:23:52.724Z,-1.25
2019-01-23T09:26:17.202Z,-1.28
2019-01-23T09:28:41.644Z,-1.21
2019-01-23T09:40:34.847Z,-0.91
2019-01-23T09:43:37.839Z,-0.91
2019-01-23T09:46:40.867Z,-0.85
2019-01-23T09:52:40.865Z,-0.70
2019-01-23T09:58:02.206Z,-0.83
2019-01-23T10:01:00.617Z,-0.78
2019-01-23T10:03:25.015Z,-0.95
2019-01-23T10:05:49.444Z,-0.81
2019-01-23T10:08:13.843Z,-0.76
2019-01-23T10:10:38.291Z,-0.66
2019-01-23T10:13:02.805Z,-0.75
2019-01-23T10:18:24.352Z,-0.70
2019-01-23T10:20:48.767Z,-0.53
2019-01-23T10:23:13.194Z,-0.97
2019-01-23T10:25:56.976Z,-1.12
2019-01-23T10:28:21.406Z,-0.63
2019-01-23T10:30:45.806Z,-1.03
2019-01-23T10:33:10.231Z,-0.81
2019-01-23T10:35:34.644Z,-0.61
2019-01-23T10:38:11.705Z,-0.76
2019-01-23T10:40:36.101Z,-0.41
2019-01-23T10:43:12.075Z,-0.69
2019-01-23T10:45:36.499Z,-0.24
2019-01-23T10:48:12.957Z,-0.28
2019-01-23T10:50:37.348Z,-0.14
2019-01-23T10:53:01.760Z,0.16
2019-01-23T10:55:26.163Z,0.10
2019-01-23T10:57:50.647Z,0.26
2019-01-23T11:00:27.662Z,0.33
2019-01-23T11:02:52.047Z,0.28
2019-01-23T11:08:12.971Z,-0.09
2019-01-23T11:10:37.390Z,0.19
2019-01-23T11:13:01.808Z,0.43
2019-01-23T11:15:26.217Z,-0.01
2019-01-23T11:17:50.614Z,0.28
2019-01-23T11:20:26.967Z,0.24
2019-01-23T11:22:51.461Z,0.31
2019-01-23T11:25:35.207Z,0.24
2019-01-23T11:27:59.623Z,0.32
2019-01-23T11:33:21.279Z,0.10
2019-01-23T11:35:45.683Z,0.45
2019-01-23T11:38:10.099Z,0.00
2019-01-23T11:40:34.567Z,0.63
2019-01-23T11:42:59.050Z,0.37
2019-01-23T11:45:23.590Z,0.43
2019-01-23T11:48:00.420Z,0.33
2019-01-23T11:50:24.826Z,0.55
2019-01-23T11:53:00.523Z,0.40
2019-01-23T11:55:25.007Z,0.34
2019-01-23T12:00:40.440Z,0.31
2019-01-23T12:03:20.837Z,0.69
2019-01-23T12:05:55.098Z,0.73
2019-01-23T12:08:19.604Z,0.88
2019-01-23T12:10:43.996Z,1.06
2019-01-23T12:13:08.406Z,0.79
2019-01-23T12:15:32.812Z,0.70
2019-01-23T12:17:57.229Z,0.57
2019-01-23T12:23:18.090Z,0.60
2019-01-23T12:25:42.586Z,0.44
2019-01-23T12:28:06.987Z,0.51
2019-01-23T12:33:28.194Z,0.44
2019-01-23T12:36:11.963Z,0.32
2019-01-23T12:38:36.366Z,0.15
2019-01-23T12:41:00.817Z,0.00
2019-01-23T12:43:25.218Z,-0.02
2019-01-23T12:45:49.718Z,0.11
2019-01-23T12:48:14.132Z,0.34
2019-01-23T12:50:38.606Z,0.43
2019-01-23T12:53:15.593Z,0.46
2019-01-23T12:55:40.014Z,0.12
2019-01-23T12:58:04.563Z,0.30
2019-01-23T13:03:25.965Z,0.41
2019-01-23T13:05:50.531Z,0.34
2019-01-23T13:08:14.945Z,0.32
2019-01-23T13:10:39.372Z,0.57
2019-01-23T13:13:03.865Z,0.04
2019-01-23T13:18:25.287Z,-0.33
2019-01-23T13:20:49.760Z,0.09
2019-01-23T13:25:49.337Z,0.23
2019-01-23T13:28:13.735Z,0.50
2019-01-23T13:33:29.592Z,0.67
2019-01-23T13:35:54.019Z,0.34
2019-01-23T13:38:18.431Z,0.44
2019-01-23T13:40:42.936Z,0.79
2019-01-23T13:46:04.629Z,0.41
2019-01-23T13:48:29.029Z,0.58
2019-01-23T13:50:53.442Z,0.02
2019-01-23T13:53:17.861Z,0.46
2019-01-23T13:55:42.357Z,0.53
2019-01-23T13:58:06.948Z,0.61
2019-01-23T14:03:28.574Z,0.48
2019-01-23T14:05:52.970Z,-0.23
2019-01-23T14:08:36.724Z,0.11
2019-01-23T14:11:01.143Z,0.17
2019-01-23T14:13:25.595Z,0.59
2019-01-23T14:15:50.008Z,0.64
2019-01-23T14:18:14.433Z,0.47
2019-01-23T14:20:38.846Z,0.49
2019-01-23T14:23:03.324Z,0.38
2019-01-23T14:25:27.745Z,0.47
2019-01-23T14:27:52.143Z,0.49
2019-01-23T14:35:48.585Z,0.60
2019-01-23T14:38:13.054Z,0.38
2019-01-23T14:40:37.492Z,0.34
2019-01-23T14:43:01.899Z,0.67
2019-01-23T14:45:26.499Z,0.60
2019-01-23T14:47:50.925Z,0.63
2019-01-23T14:55:59.462Z,0.63
2019-01-23T14:58:23.911Z,0.44
2019-01-23T15:00:48.300Z,0.28
2019-01-23T15:03:12.707Z,0.36
2019-01-23T15:05:37.111Z,0.27
2019-01-23T15:08:01.586Z,0.33
2019-01-23T15:13:22.437Z,0.48
2019-01-23T15:15:46.895Z,0.59
2019-01-23T15:18:11.305Z,0.68
2019-01-23T15:20:56.506Z,0.37
2019-01-23T15:23:20.923Z,0.50
2019-01-23T15:25:45.306Z,0.43
2019-01-23T15:28:09.726Z,0.25
2019-01-23T15:30:34.188Z,0.56
2019-01-23T15:32:58.685Z,0.22
2019-01-23T15:35:23.168Z,0.45
2019-01-23T15:37:47.657Z,0.35
2019-01-23T15:43:08.661Z,0.41
2019-01-23T15:45:33.079Z,0.32
2019-01-23T15:47:57.521Z,0.21
2019-01-23T15:53:23.956Z,0.35
2019-01-23T15:55:48.345Z,0.28
2019-01-23T15:58:12.794Z,0.39
2019-01-23T16:00:37.199Z,0.18
2019-01-23T16:03:01.749Z,0.29
2019-01-23T16:05:26.167Z,0.48
2019-01-23T16:07:50.574Z,0.23
2019-01-23T16:13:11.473Z,0.10
2019-01-23T16:15:35.911Z,0.25
2019-01-23T16:18:06.425Z,0.29
2019-01-23T16:20:30.866Z,0.27
2019-01-23T16:22:55.399Z,0.20
2019-01-23T16:25:20.046Z,0.08
2019-01-23T16:28:05.260Z,0.04
2019-01-23T16:33:27.077Z,-0.02
2019-01-23T16:35:51.473Z,-0.05
2019-01-23T16:38:15.877Z,-0.22
2019-01-23T16:40:40.491Z,-0.03
2019-01-23T16:43:05.051Z,-0.13
2019-01-23T16:45:29.554Z,-0.21
2019-01-23T16:47:54.126Z,-0.24
2019-01-23T16:53:15.730Z,-0.19
2019-01-23T16:55:40.152Z,-0.31
2019-01-23T17:01:01.312Z,-0.37
2019-01-23T17:03:25.823Z,-0.39
2019-01-23T17:05:50.287Z,-0.37
2019-01-23T17:08:14.726Z,-0.28
2019-01-23T17:10:39.130Z,-0.44
2019-01-23T17:13:03.640Z,-0.59
2019-01-23T17:15:28.106Z,-0.48
2019-01-23T17:17:52.809Z,-0.51
2019-01-23T17:20:55.791Z,-0.50
2019-01-23T17:23:20.234Z,-0.43
2019-01-23T17:25:44.643Z,-0.41
2019-01-23T17:28:29.874Z,-0.58
2019-01-23T17:30:54.276Z,-0.62
2019-01-23T17:33:18.689Z,-0.68
2019-01-23T17:35:43.190Z,-0.66
2019-01-23T17:38:07.590Z,-0.67
2019-01-23T17:40:32.205Z,-0.69
2019-01-23T17:42:56.614Z,-0.70
2019-01-23T17:45:40.424Z,-0.75
2019-01-23T17:51:01.290Z,-0.68
2019-01-23T17:53:25.715Z,-0.65
2019-01-23T17:56:02.021Z,-0.71
2019-01-23T17:58:21.574Z,-0.77
2019-01-23T18:01:05.175Z,-0.65
2019-01-23T18:03:29.686Z,-0.77
2019-01-23T18:05:54.169Z,-0.82
2019-01-23T18:08:18.606Z,-0.73
2019-01-23T18:10:54.761Z,-0.71
2019-01-23T18:18:52.763Z,-0.70
2019-01-23T18:21:17.179Z,-0.76
2019-01-23T18:23:41.650Z,-0.72
2019-01-23T18:26:06.317Z,-0.67
2019-01-23T18:28:30.744Z,-0.67
2019-01-23T18:31:33.775Z,-0.69
2019-01-23T18:34:36.823Z,-0.54
2019-01-23T18:37:39.861Z,-0.66
2019-01-23T18:43:39.952Z,-0.60
2019-01-23T18:46:43.003Z,-0.64
2019-01-23T18:49:46.038Z,-0.62
2019-01-23T18:52:32.045Z,-0.68
2019-01-23T18:54:56.484Z,-0.69
2019-01-23T18:57:40.265Z,-0.74
2019-01-23T19:00:25.493Z,-0.66
2019-01-23T19:02:49.951Z,-0.57
2019-01-23T19:08:11.848Z,-0.82
2019-01-23T19:10:36.338Z,-0.95
2019-01-23T19:13:00.743Z,-0.92
2019-01-23T19:15:25.214Z,-1.12
2019-01-23T19:17:49.635Z,-0.92
2019-01-23T19:23:10.473Z,-0.66
2019-01-23T19:25:35.008Z,-0.88
2019-01-23T19:27:59.461Z,-1.24
2019-01-23T19:30:24.000Z,-1.15
2019-01-23T19:32:48.508Z,-1.01
2019-01-23T19:35:13.001Z,-1.08
2019-01-23T19:37:37.438Z,-1.14
2019-01-23T19:40:01.860Z,-1.49
2019-01-23T19:42:26.306Z,-1.65
2019-01-23T19:44:50.734Z,-1.13
2019-01-23T19:47:15.304Z,-1.05
2019-01-23T19:49:39.796Z,-1.16
2019-01-23T19:52:04.287Z,-1.22
2019-01-23T19:54:28.712Z,-1.28
2019-01-23T19:56:53.128Z,-1.11
2019-01-23T19:59:17.561Z,-1.16
2019-01-23T20:01:42.072Z,-1.34
2019-01-23T20:04:06.603Z,-1.24
2019-01-23T20:06:31.034Z,-1.65
2019-01-23T20:08:55.461Z,-1.23
2019-01-23T20:11:21.003Z,-1.27
2019-01-23T20:13:55.113Z,-1.15
2019-01-23T20:16:19.566Z,-0.98
2019-01-23T20:18:43.971Z,-1.25
2019-01-23T20:21:08.466Z,-1.08
2019-01-23T20:23:32.873Z,-1.47
2019-01-23T20:25:57.415Z,-1.10
2019-01-23T20:28:21.860Z,-1.12
2019-01-23T20:30:46.427Z,-1.44
2019-01-23T20:33:10.852Z,-1.17
2019-01-23T20:35:35.357Z,-1.67
2019-01-23T20:37:59.881Z,-1.51
2019-01-23T20:40:36.871Z,-1.37
2019-01-23T20:43:01.309Z,-1.37
2019-01-23T20:45:25.731Z,-1.30
2019-01-23T20:47:50.148Z,-1.47
2019-01-23T20:50:33.932Z,-1.43
2019-01-23T20:52:58.352Z,-1.42
2019-01-23T20:55:22.864Z,-1.44
2019-01-23T20:57:47.291Z,-1.89
2019-01-23T21:00:31.939Z,-1.45
2019-01-23T21:02:56.373Z,-1.79
2019-01-23T21:05:20.810Z,-1.79
2019-01-23T21:07:45.314Z,-1.71
2019-01-23T21:10:21.828Z,-1.61
2019-01-23T21:12:46.257Z,-1.51
2019-01-23T21:15:30.662Z,-1.56
2019-01-23T21:17:55.069Z,-1.73
2019-01-23T21:20:19.469Z,-1.48
2019-01-23T21:22:43.936Z,-1.60
2019-01-23T21:31:02.070Z,-1.77
2019-01-23T21:33:26.502Z,-2.07
2019-01-23T21:35:50.936Z,-1.89
2019-01-23T21:38:15.379Z,-2.17
2019-01-23T21:40:39.817Z,-2.11
2019-01-23T21:43:15.575Z,-1.72
2019-01-23T21:45:39.980Z,-1.84
2019-01-23T21:50:43.939Z,-2.35
2019-01-23T21:53:08.361Z,-1.80
2019-01-23T21:55:32.916Z,-1.81
2019-01-23T21:57:57.286Z,-1.96
2019-01-23T22:03:18.396Z,-1.94
2019-01-23T22:05:42.806Z,-2.30
2019-01-23T22:11:04.195Z,-2.76
2019-01-23T22:13:28.627Z,-1.94
2019-01-23T22:15:53.053Z,-2.05
2019-01-23T22:18:17.476Z,-1.93
2019-01-23T22:20:41.887Z,-2.06
2019-01-23T22:23:06.329Z,-1.88
2019-01-23T22:25:30.828Z,-1.91
2019-01-23T22:28:16.045Z,-1.87
2019-01-23T22:30:40.484Z,-1.97
2019-01-23T22:33:15.926Z,-2.37
2019-01-23T22:35:52.846Z,-2.13
2019-01-23T22:38:17.273Z,-2.45
2019-01-23T22:40:41.710Z,-2.26
2019-01-23T22:43:06.220Z,-1.98
2019-01-23T22:45:30.628Z,-2.05
2019-01-23T22:47:55.048Z,-2.03
2019-01-23T22:50:40.273Z,-2.08
2019-01-23T22:53:04.838Z,-2.38
2019-01-23T22:55:29.358Z,-1.97
2019-01-23T22:57:59.882Z,-2.13
2019-01-23T23:01:03.286Z,-1.96
2019-01-23T23:03:27.699Z,-2.19
2019-01-23T23:05:52.112Z,-2.06
2019-01-23T23:08:16.617Z,-2.13
2019-01-23T23:10:41.038Z,-1.90
2019-01-23T23:13:05.542Z,-2.11
2019-01-23T23:15:29.982Z,-2.00
2019-01-23T23:17:54.416Z,-2.06
2019-01-23T23:20:18.840Z,-2.10
2019-01-23T23:25:18.834Z,-2.24
2019-01-23T23:27:43.231Z,-2.14
2019-01-23T23:33:02.773Z,-2.06
2019-01-23T23:38:03.092Z,-2.06
2019-01-23T23:40:27.540Z,-1.94
2019-01-23T23:42:51.940Z,-2.01
2019-01-23T23:45:28.352Z,-2.06
2019-01-23T23:47:52.749Z,-1.90
2019-01-23T23:50:17.912Z,-2.05
2019-01-23T23:52:42.315Z,-1.84
2019-01-23T23:55:27.523Z,-1.67
2019-01-23T23:57:51.966Z,-1.83
